createdAt,value
2022-09-12T00:01:45.537Z,2.35
2022-09-12T00:04:31.018Z,2.60
2022-09-12T00:07:16.961Z,2.70
2022-09-12T00:10:02.387Z,2.63
2022-09-12T00:12:48.351Z,2.90
2022-09-12T00:15:38.533Z,2.50
2022-09-12T00:18:23.970Z,2.80
2022-09-12T00:21:09.517Z,2.65
2022-09-12T00:23:55.843Z,2.63
2022-09-12T00:26:41.191Z,2.67
2022-09-12T00:29:26.785Z,2.92
2022-09-12T00:32:11.940Z,3.05
2022-09-12T00:34:58.107Z,3.20
2022-09-12T00:37:43.274Z,2.95
2022-09-12T00:40:28.561Z,3.25
2022-09-12T00:43:39.006Z,2.95
2022-09-12T00:46:52.932Z,3.53
2022-09-12T00:50:00.966Z,3.10
2022-09-12T00:52:52.377Z,3.47
2022-09-12T00:55:48.976Z,3.65
2022-09-12T00:58:40.765Z,3.05
2022-09-12T01:01:30.426Z,3.60
2022-09-12T01:04:21.939Z,3.35
2022-09-12T01:07:08.637Z,3.45
2022-09-12T01:09:53.814Z,3.10
2022-09-12T01:12:41.246Z,3.47
2022-09-12T01:15:26.514Z,3.65
2022-09-12T01:18:35.471Z,3.78
2022-09-12T01:21:51.011Z,3.63
2022-09-12T01:24:57.855Z,3.50
2022-09-12T01:28:11.961Z,3.47
2022-09-12T01:31:12.819Z,3.63
2022-09-12T01:34:01.632Z,3.33
2022-09-12T01:37:18.551Z,3.38
2022-09-12T01:40:16.475Z,3.53
2022-09-12T01:43:01.438Z,3.47
2022-09-12T01:46:03.174Z,8.60
2022-09-12T01:48:52.928Z,4.47
2022-09-12T01:54:46.367Z,23.80
2022-09-12T01:57:36.587Z,5.05
2022-09-12T02:00:21.928Z,4.15
2022-09-12T02:03:21.138Z,4.05
2022-09-12T02:09:03.267Z,4.35
2022-09-12T02:11:51.655Z,3.80
2022-09-12T02:14:41.663Z,4.35
2022-09-12T02:20:26.026Z,3.70
2022-09-12T02:23:27.175Z,4.90
2022-09-12T02:26:21.125Z,3.90
2022-09-12T02:29:07.662Z,4.32
2022-09-12T02:31:59.166Z,4.63
2022-09-12T02:35:07.360Z,4.35
2022-09-12T02:38:20.900Z,4.65
2022-09-12T02:41:07.298Z,4.43
2022-09-12T02:43:53.934Z,4.78
2022-09-12T02:46:46.813Z,4.50
2022-09-12T02:49:32.082Z,5.43
2022-09-12T02:52:20.207Z,4.78
2022-09-12T02:55:06.671Z,4.97
2022-09-12T02:57:51.955Z,5.05
2022-09-12T03:00:57.308Z,4.68
2022-09-12T03:04:05.714Z,4.93
2022-09-12T03:07:06.198Z,5.22
2022-09-12T03:10:08.189Z,4.45
2022-09-12T03:13:19.637Z,7.35
2022-09-12T03:16:26.689Z,5.97
2022-09-12T03:19:20.648Z,6.13
2022-09-12T03:22:27.372Z,4.85
2022-09-12T03:25:20.553Z,4.43
2022-09-12T03:28:11.290Z,4.95
2022-09-12T03:33:41.911Z,4.90
2022-09-12T03:36:29.969Z,5.00
2022-09-12T03:39:15.991Z,8.57
2022-09-12T03:42:01.416Z,4.88
2022-09-12T03:44:47.224Z,4.38
2022-09-12T03:47:32.557Z,4.70
2022-09-12T03:50:18.553Z,4.93
2022-09-12T03:53:04.121Z,4.90
2022-09-12T03:55:49.395Z,4.68
2022-09-12T03:58:36.246Z,4.22
2022-09-12T04:01:21.573Z,4.80
2022-09-12T04:04:06.914Z,6.88
2022-09-12T04:06:52.183Z,5.82
2022-09-12T04:09:37.872Z,4.20
2022-09-12T04:12:23.659Z,4.70
2022-09-12T04:15:09.466Z,5.63
2022-09-12T04:17:55.029Z,5.47
2022-09-12T04:20:40.066Z,4.57
2022-09-12T04:23:25.123Z,4.88
2022-09-12T04:26:11.126Z,4.72
2022-09-12T04:28:57.550Z,5.07
2022-09-12T04:31:43.410Z,4.55
2022-09-12T04:34:31.508Z,5.28
2022-09-12T04:37:16.843Z,4.72
2022-09-12T04:40:02.304Z,6.30
2022-09-12T04:42:47.458Z,6.55
2022-09-12T04:45:33.821Z,6.03
2022-09-12T04:48:19.072Z,5.55
2022-09-12T04:51:16.989Z,10.02
2022-09-12T04:54:15.319Z,7.40
2022-09-12T04:57:00.957Z,6.10
2022-09-12T04:59:46.134Z,5.40
2022-09-12T05:02:33.663Z,8.20
2022-09-12T05:05:18.919Z,6.28
2022-09-12T05:08:04.358Z,5.28
2022-09-12T05:10:49.510Z,5.10
2022-09-12T05:13:35.059Z,6.32
2022-09-12T05:16:21.380Z,5.85
2022-09-12T05:19:07.432Z,5.40
2022-09-12T05:21:52.669Z,6.70
2022-09-12T05:24:39.615Z,7.32
2022-09-12T05:27:25.082Z,6.05
2022-09-12T05:30:11.172Z,6.43
2022-09-12T05:32:56.408Z,7.47
2022-09-12T05:35:41.923Z,7.32
2022-09-12T05:38:28.955Z,6.43
2022-09-12T05:41:25.013Z,7.03
2022-09-12T05:44:13.984Z,6.28
2022-09-12T05:47:04.080Z,6.97
2022-09-12T05:49:51.181Z,7.43
2022-09-12T05:52:39.651Z,6.32
2022-09-12T05:55:24.752Z,9.40
2022-09-12T05:58:10.433Z,9.07
2022-09-12T06:00:56.537Z,7.07
2022-09-12T06:03:47.132Z,7.57
2022-09-12T06:06:36.355Z,6.70
2022-09-12T06:09:22.674Z,7.07
2022-09-12T06:12:08.610Z,6.57
2022-09-12T06:14:54.071Z,5.68
2022-09-12T06:17:39.797Z,6.53
2022-09-12T06:20:24.976Z,6.13
2022-09-12T06:23:10.312Z,6.75
2022-09-12T06:25:56.600Z,6.32
2022-09-12T06:28:42.830Z,7.38
2022-09-12T06:31:31.172Z,7.05
2022-09-12T06:34:16.664Z,6.55
2022-09-12T06:37:03.960Z,6.35
2022-09-12T06:39:50.136Z,9.05
2022-09-12T06:42:35.593Z,8.02
2022-09-12T06:45:21.387Z,7.47
2022-09-12T06:48:07.117Z,8.20
2022-09-12T06:51:00.329Z,8.23
2022-09-12T06:53:46.892Z,6.13
2022-09-12T06:56:32.497Z,7.13
2022-09-12T06:59:18.291Z,6.47
2022-09-12T07:02:03.842Z,6.55
2022-09-12T07:04:51.737Z,7.05
2022-09-12T07:07:38.605Z,7.07
2022-09-12T07:10:24.024Z,5.97
2022-09-12T07:13:09.277Z,8.05
2022-09-12T07:15:54.532Z,8.88
2022-09-12T07:18:40.399Z,6.95
2022-09-12T07:21:26.764Z,7.28
2022-09-12T07:24:12.009Z,8.05
2022-09-12T07:26:57.390Z,7.03
2022-09-12T07:29:42.513Z,8.35
2022-09-12T07:32:27.876Z,7.55
2022-09-12T07:35:13.551Z,6.45
2022-09-12T07:37:58.677Z,6.30
2022-09-12T07:40:44.151Z,6.43
2022-09-12T07:43:29.218Z,6.22
2022-09-12T07:46:17.304Z,5.45
2022-09-12T07:49:03.054Z,6.72
2022-09-12T07:51:48.554Z,5.68
2022-09-12T07:54:33.908Z,5.47
2022-09-12T07:57:19.427Z,6.60
2022-09-12T08:00:05.755Z,5.57
2022-09-12T08:02:57.611Z,5.85
2022-09-12T08:05:43.116Z,5.15
2022-09-12T08:08:29.162Z,4.43
2022-09-12T08:11:17.841Z,4.47
2022-09-12T08:14:05.530Z,3.78
2022-09-12T08:16:50.796Z,4.43
2022-09-12T08:19:36.112Z,4.43
2022-09-12T08:22:21.902Z,3.08
2022-09-12T08:25:08.631Z,3.05
2022-09-12T08:27:54.235Z,2.60
2022-09-12T08:30:39.655Z,2.88
2022-09-12T08:33:27.290Z,2.10
2022-09-12T08:36:24.247Z,2.88
2022-09-12T08:39:12.398Z,1.90
2022-09-12T08:42:06.292Z,1.70
2022-09-12T08:45:15.088Z,1.50
2022-09-12T08:48:04.495Z,2.10
2022-09-12T08:50:50.179Z,1.20
2022-09-12T08:53:37.413Z,1.27
2022-09-12T08:56:26.482Z,1.45
2022-09-12T08:59:13.791Z,1.48
2022-09-12T09:02:04.378Z,1.20
2022-09-12T09:05:00.860Z,3.78
2022-09-12T09:08:05.435Z,1.52
2022-09-12T09:10:59.347Z,4.72
2022-09-12T09:14:17.399Z,2.50
2022-09-12T09:17:03.252Z,1.40
2022-09-12T09:19:58.790Z,1.00
2022-09-12T09:22:50.545Z,0.80
2022-09-12T09:26:03.900Z,2.75
2022-09-12T09:28:54.219Z,1.35
2022-09-12T09:31:40.841Z,1.20
2022-09-12T09:34:30.083Z,1.30
2022-09-12T09:37:42.138Z,1.45
2022-09-12T09:40:53.436Z,1.40
2022-09-12T09:43:38.876Z,2.65
2022-09-12T09:46:24.601Z,1.33
2022-09-12T09:49:14.544Z,1.75
2022-09-12T09:52:01.026Z,2.97
2022-09-12T09:54:59.492Z,3.10
2022-09-12T09:57:46.891Z,2.20
2022-09-12T10:00:35.380Z,1.75
2022-09-12T10:03:37.543Z,1.75
2022-09-12T10:06:32.355Z,1.85
2022-09-12T10:09:20.882Z,1.70
2022-09-12T10:12:22.022Z,1.27
2022-09-12T10:15:34.648Z,1.83
2022-09-12T10:18:34.764Z,2.08
2022-09-12T10:21:36.170Z,1.30
2022-09-12T10:24:26.648Z,1.40
2022-09-12T10:27:11.666Z,1.40
2022-09-12T10:30:04.441Z,1.40
2022-09-12T10:32:50.801Z,1.45
2022-09-12T10:35:45.983Z,1.80
2022-09-12T10:38:32.744Z,1.23
2022-09-12T10:41:18.640Z,1.55
2022-09-12T10:44:31.841Z,1.40
2022-09-12T10:47:27.126Z,1.20
2022-09-12T11:28:52.807Z,2.83
2022-09-12T11:32:00.403Z,1.58
2022-09-12T11:35:00.753Z,1.10
2022-09-12T11:38:03.779Z,1.33
2022-09-12T11:40:55.880Z,1.13
2022-09-12T11:43:55.373Z,0.95
2022-09-12T11:46:43.519Z,1.15
2022-09-12T11:49:41.192Z,2.78
2022-09-12T11:52:35.745Z,1.80
2022-09-12T11:55:28.229Z,1.85
2022-09-12T11:58:14.950Z,2.28
2022-09-12T12:01:15.186Z,1.20
2022-09-12T12:04:07.940Z,1.17
2022-09-12T12:07:02.452Z,1.15
2022-09-12T12:09:52.764Z,1.20
2022-09-12T12:12:38.421Z,1.02
2022-09-12T12:15:25.499Z,1.35
2022-09-12T12:18:27.245Z,1.00
2022-09-12T12:21:21.777Z,1.08
2022-09-12T12:24:10.090Z,1.23
2022-09-12T12:27:01.185Z,1.15
2022-09-12T12:29:46.609Z,0.88
2022-09-12T12:32:31.928Z,0.88
2022-09-12T12:35:46.732Z,0.80
2022-09-12T12:38:39.762Z,1.10
2022-09-12T12:41:25.132Z,1.60
2022-09-12T12:44:44.934Z,1.15
2022-09-12T12:47:41.656Z,1.20
2022-09-12T12:50:30.445Z,1.27
2022-09-12T12:53:28.090Z,1.10
2022-09-12T12:56:41.957Z,1.10
2022-09-12T12:59:27.553Z,1.58
2022-09-12T13:02:38.374Z,1.77
2022-09-12T13:05:26.430Z,1.08
2022-09-12T13:08:17.811Z,1.20
2022-09-12T13:11:16.746Z,1.88
2022-09-12T13:14:09.451Z,2.50
2022-09-12T13:17:01.286Z,1.60
2022-09-12T13:19:48.574Z,7.18
2022-09-12T13:22:48.667Z,3.17
2022-09-12T13:25:36.261Z,1.70
2022-09-12T13:28:22.494Z,0.95
2022-09-12T13:31:19.693Z,1.90
2022-09-12T13:34:07.858Z,1.20
2022-09-12T13:37:16.208Z,1.23
2022-09-12T13:40:26.624Z,1.10
2022-09-12T13:43:35.558Z,1.50
2022-09-12T13:46:31.364Z,1.00
2022-09-12T13:49:34.971Z,1.10
2022-09-12T13:52:25.451Z,1.08
2022-09-12T13:55:25.008Z,0.90
2022-09-12T13:58:21.634Z,1.00
2022-09-12T14:01:20.379Z,1.17
2022-09-12T14:04:44.771Z,1.23
2022-09-12T14:07:31.587Z,1.08
2022-09-12T14:10:23.699Z,1.33
2022-09-12T14:13:22.503Z,1.85
2022-09-12T14:16:12.323Z,1.30
2022-09-12T14:18:58.862Z,1.10
2022-09-12T14:21:44.539Z,1.63
2022-09-12T14:24:32.327Z,2.38
2022-09-12T14:27:21.050Z,1.73
2022-09-12T14:30:22.720Z,1.13
2022-09-12T14:33:11.275Z,1.40
2022-09-12T14:36:31.507Z,0.93
2022-09-12T14:39:39.877Z,1.10
2022-09-12T14:42:30.980Z,1.20
2022-09-12T14:45:30.489Z,1.40
2022-09-12T14:51:06.356Z,1.20
2022-09-12T14:53:51.836Z,1.42
2022-09-12T14:56:43.429Z,1.77
2022-09-12T14:59:42.511Z,3.00
2022-09-12T15:02:27.704Z,4.13
2022-09-12T15:05:12.875Z,1.70
2022-09-12T15:08:02.092Z,2.10
2022-09-12T15:10:48.194Z,1.13
2022-09-12T15:13:40.298Z,2.58
2022-09-12T15:16:25.811Z,2.10
2022-09-12T15:19:10.851Z,2.45
2022-09-12T15:21:56.447Z,1.42
2022-09-12T15:24:41.606Z,1.98
2022-09-12T15:27:27.004Z,1.70
2022-09-12T15:30:13.333Z,1.80
2022-09-12T15:33:00.032Z,1.85
2022-09-12T15:35:45.470Z,1.80
2022-09-12T15:38:33.411Z,1.52
2022-09-12T15:41:25.207Z,1.55
2022-09-12T15:44:14.282Z,1.58
2022-09-12T15:46:59.539Z,1.63
2022-09-12T15:49:45.400Z,1.70
2022-09-12T15:52:31.838Z,2.40
2022-09-12T15:55:30.247Z,1.70
2022-09-12T15:58:15.813Z,1.90
2022-09-12T16:01:02.293Z,1.55
2022-09-12T16:03:47.888Z,1.48
2022-09-12T16:06:37.254Z,1.80
2022-09-12T16:09:23.702Z,1.90
2022-09-12T16:12:09.700Z,1.80
2022-09-12T16:14:54.736Z,1.58
2022-09-12T16:17:40.064Z,2.00
2022-09-12T16:20:25.288Z,1.45
2022-09-12T16:23:13.573Z,1.63
2022-09-12T16:26:00.073Z,1.50
2022-09-12T16:28:45.736Z,1.50
2022-09-12T16:31:31.086Z,1.70
2022-09-12T16:34:16.479Z,1.55
2022-09-12T16:37:02.323Z,1.70
2022-09-12T16:39:48.884Z,1.98
2022-09-12T16:42:35.605Z,1.67
2022-09-12T16:45:20.888Z,1.90
2022-09-12T16:48:05.898Z,2.30
2022-09-12T16:50:58.645Z,2.33
2022-09-12T16:53:44.077Z,2.30
2022-09-12T16:56:30.032Z,2.35
2022-09-12T16:59:16.722Z,1.52
2022-09-12T17:02:03.184Z,1.90
2022-09-12T17:04:48.786Z,2.17
2022-09-12T17:07:34.778Z,2.35
2022-09-12T17:10:20.208Z,2.42
2022-09-12T17:13:05.806Z,2.13
2022-09-12T17:15:51.461Z,2.95
2022-09-12T17:18:37.586Z,3.47
2022-09-12T17:21:22.944Z,6.13
2022-09-12T17:24:08.192Z,3.55
2022-09-12T17:26:53.736Z,4.50
2022-09-12T17:29:39.242Z,5.00
2022-09-12T17:32:24.517Z,4.43
2022-09-12T17:35:10.939Z,4.13
2022-09-12T17:37:56.424Z,3.97
2022-09-12T17:40:58.561Z,3.85
2022-09-12T17:43:46.290Z,3.60
2022-09-12T17:46:36.911Z,4.05
2022-09-12T17:49:22.273Z,4.35
2022-09-12T17:52:08.122Z,4.05
2022-09-12T17:54:53.267Z,4.13
2022-09-12T17:57:39.119Z,4.38
2022-09-12T18:00:44.518Z,5.15
2022-09-12T18:03:30.012Z,5.95
2022-09-12T18:06:15.238Z,5.63
2022-09-12T18:09:05.899Z,7.28
2022-09-12T18:11:52.938Z,7.22
2022-09-12T18:14:38.014Z,8.05
2022-09-12T18:17:23.624Z,7.57
2022-09-12T18:20:09.439Z,7.65
2022-09-12T18:22:54.695Z,6.18
2022-09-12T18:25:39.903Z,5.15
2022-09-12T18:28:25.616Z,4.90
2022-09-12T18:31:15.176Z,4.40
2022-09-12T18:36:49.107Z,4.35
2022-09-12T18:39:34.632Z,4.80
2022-09-12T18:42:20.147Z,5.07
2022-09-12T18:45:06.421Z,5.65
2022-09-12T18:47:51.831Z,5.57
2022-09-12T18:50:37.054Z,5.22
2022-09-12T18:53:22.413Z,4.75
2022-09-12T18:56:12.443Z,4.72
2022-09-12T18:58:57.895Z,5.05
2022-09-12T19:01:46.003Z,5.32
2022-09-12T19:04:32.376Z,4.70
2022-09-12T19:07:19.601Z,5.53
2022-09-12T19:10:08.925Z,5.15
2022-09-12T19:12:54.445Z,6.07
2022-09-12T19:15:41.329Z,5.38
2022-09-12T19:18:26.974Z,5.85
2022-09-12T19:21:19.957Z,6.15
2022-09-12T19:24:10.053Z,6.55
2022-09-12T19:26:55.299Z,7.47
2022-09-12T19:29:40.528Z,6.40
2022-09-12T19:32:25.783Z,7.32
2022-09-12T19:35:12.777Z,7.55
2022-09-12T19:37:57.899Z,7.55
2022-09-12T19:40:43.643Z,7.90
2022-09-12T19:43:30.510Z,5.95
2022-09-12T19:46:18.063Z,6.05
2022-09-12T19:49:03.631Z,8.98
2022-09-12T19:51:48.914Z,6.18
2022-09-12T19:54:34.329Z,6.07
2022-09-12T19:57:19.542Z,7.10
2022-09-12T20:00:06.550Z,6.82
2022-09-12T20:02:53.083Z,6.55
2022-09-12T20:05:42.134Z,7.55
2022-09-12T20:08:28.137Z,7.15
2022-09-12T20:11:18.161Z,6.60
2022-09-12T20:14:03.474Z,6.40
2022-09-12T20:16:48.547Z,5.95
2022-09-12T20:19:34.234Z,5.82
2022-09-12T20:22:21.449Z,5.82
2022-09-12T20:25:07.158Z,6.97
2022-09-12T20:27:55.897Z,7.85
2022-09-12T20:30:43.420Z,8.95
2022-09-12T20:33:29.519Z,6.18
2022-09-12T20:36:17.519Z,5.10
2022-09-12T20:39:03.916Z,6.07
2022-09-12T20:41:49.379Z,5.63
2022-09-12T20:44:34.557Z,6.30
2022-09-12T20:47:19.764Z,5.82
2022-09-12T20:50:05.365Z,5.53
2022-09-12T20:52:50.582Z,7.55
2022-09-12T20:55:36.086Z,4.60
2022-09-12T20:58:22.472Z,3.75
2022-09-12T21:01:08.892Z,4.70
2022-09-12T21:03:54.538Z,5.10
2022-09-12T21:06:39.918Z,5.43
2022-09-12T21:09:25.313Z,5.10
2022-09-12T21:12:10.845Z,4.72
2022-09-12T21:14:56.105Z,5.45
2022-09-12T21:17:41.376Z,4.35
2022-09-12T21:20:27.111Z,4.10
2022-09-12T21:23:12.411Z,3.97
2022-09-12T21:26:01.335Z,4.32
2022-09-12T21:28:47.821Z,4.82
2022-09-12T21:31:33.008Z,3.97
2022-09-12T21:34:20.751Z,3.83
2022-09-12T21:37:08.917Z,4.45
2022-09-12T21:39:54.581Z,4.30
2022-09-12T21:42:39.723Z,5.05
2022-09-12T21:45:24.999Z,5.53
2022-09-12T21:48:14.730Z,3.58
2022-09-12T21:51:01.004Z,7.57
2022-09-12T21:53:47.020Z,5.18
2022-09-12T21:56:32.961Z,3.80
2022-09-12T21:59:18.325Z,6.70
2022-09-12T22:02:03.837Z,7.88
2022-09-12T22:04:49.975Z,4.60
2022-09-12T22:07:36.418Z,4.75
2022-09-12T22:10:21.901Z,4.28
2022-09-12T22:13:07.147Z,5.00
2022-09-12T22:15:53.067Z,4.25
2022-09-12T22:18:38.405Z,4.28
2022-09-12T22:21:24.296Z,4.30
2022-09-12T22:24:27.962Z,4.88
2022-09-12T22:27:13.440Z,3.70
2022-09-12T22:29:58.665Z,3.65
2022-09-12T22:32:43.962Z,3.67
2022-09-12T22:35:29.390Z,4.10
2022-09-12T22:38:14.535Z,5.63
2022-09-12T22:41:07.470Z,4.55
2022-09-12T22:43:52.440Z,4.78
2022-09-12T22:46:38.612Z,4.25
2022-09-12T22:49:23.951Z,3.38
2022-09-12T22:52:09.389Z,3.22
2022-09-12T22:54:54.870Z,3.58
2022-09-12T22:57:40.057Z,3.40
2022-09-12T23:00:27.578Z,3.78
2022-09-12T23:03:12.843Z,3.53
2022-09-12T23:05:58.439Z,3.97
2022-09-12T23:08:43.665Z,4.32
2022-09-12T23:11:28.953Z,6.88
2022-09-12T23:14:14.508Z,3.80
2022-09-12T23:16:59.738Z,4.13
2022-09-12T23:19:45.457Z,3.35
2022-09-12T23:22:31.035Z,4.10
2022-09-12T23:25:17.029Z,7.20
2022-09-12T23:28:02.228Z,8.02
2022-09-12T23:30:54.512Z,4.72
2022-09-12T23:33:39.563Z,5.45
2022-09-12T23:36:26.181Z,4.47
2022-09-12T23:39:11.732Z,3.72
2022-09-12T23:41:57.114Z,5.55
2022-09-12T23:44:42.046Z,4.03
2022-09-12T23:47:27.543Z,5.90
2022-09-12T23:50:12.786Z,3.90
2022-09-12T23:52:58.247Z,4.82
2022-09-12T23:55:44.793Z,3.90
2022-09-12T23:58:30.932Z,3.70
